Time;durP1;ratioP1;P1;durP2;ratioP2;P2;SDS_P1;SDS_P2;PMS_P1;PMS_P2;Temp;Humidity;BMP_temperature;BMP_pressure;BME280_temperature;BME280_humidity;BME280_pressure;Samples;Min_cycle;Max_cycle;Signal;HPM_P1;HPM_P2
2022/05/13 00:02:12;;;;;;;24.85;15.20;;;;;;;;;;5052293;28;20062;-65
2022/05/13 00:04:39;;;;;;;33.22;16.25;;;;;;;;;;5055339;28;20531;-64
2022/05/13 00:07:05;;;;;;;38.45;16.00;;;;;;;;;;5051880;28;20112;-65
2022/05/13 00:12:17;;;;;;;14.75;9.82;;;;;;;;;;5051322;28;20111;-65
2022/05/13 00:14:44;;;;;;;15.18;8.13;;;;;;;;;;5050995;28;20104;-66
2022/05/13 00:17:10;;;;;;;11.00;7.75;;;;;;;;;;5050699;28;20365;-64
2022/05/13 00:19:37;;;;;;;19.02;7.30;;;;;;;;;;5051636;28;20495;-65
2022/05/13 00:22:03;;;;;;;10.38;6.22;;;;;;;;;;5055286;28;20116;-64
2022/05/13 00:24:29;;;;;;;11.70;6.78;;;;;;;;;;5055008;28;20181;-65
2022/05/13 00:26:55;;;;;;;9.82;7.40;;;;;;;;;;5054211;28;20037;-65
2022/05/13 00:29:22;;;;;;;14.15;6.45;;;;;;;;;;5053079;28;20013;-64
2022/05/13 00:31:48;;;;;;;13.38;7.47;;;;;;;;;;5054291;28;20040;-65
2022/05/13 00:34:14;;;;;;;11.50;6.85;;;;;;;;;;5054389;28;20112;-68
2022/05/13 00:36:40;;;;;;;11.00;6.65;;;;;;;;;;5037490;28;20309;-65
2022/05/13 00:39:07;;;;;;;13.60;7.05;;;;;;;;;;5035200;28;20053;-64
2022/05/13 00:41:34;;;;;;;14.50;7.45;;;;;;;;;;5035204;28;20044;-65
2022/05/13 00:44:00;;;;;;;24.50;14.95;;;;;;;;;;5034793;28;20076;-68
2022/05/13 00:46:30;;;;;;;17.92;13.88;;;;;;;;;;5052128;28;20464;-64
2022/05/13 00:48:59;;;;;;;19.80;13.45;;;;;;;;;;5054788;28;20040;-66
2022/05/13 00:51:32;;;;;;;14.32;8.13;;;;;;;;;;5054890;28;20035;-66
2022/05/13 00:53:58;;;;;;;9.30;6.20;;;;;;;;;;5054774;28;20028;-65
2022/05/13 00:56:25;;;;;;;11.05;6.25;;;;;;;;;;5040942;28;20068;-65
2022/05/13 00:58:57;;;;;;;7.20;5.60;;;;;;;;;;5047345;28;20029;-66
2022/05/13 01:01:23;;;;;;;8.30;5.03;;;;;;;;;;5046195;28;20040;-65
2022/05/13 01:03:50;;;;;;;8.77;5.28;;;;;;;;;;5035228;28;20018;-68
2022/05/13 01:06:23;;;;;;;15.02;6.93;;;;;;;;;;5035054;28;20041;-66
2022/05/13 01:08:49;;;;;;;;;;;;;;;;;;5035422;28;20037;-66
2022/05/13 01:11:19;;;;;;;10.77;5.05;;;;;;;;;;5039734;28;19934;-65
2022/05/13 01:13:50;;;;;;;10.02;5.70;;;;;;;;;;5054275;28;20033;-67
2022/05/13 01:16:16;;;;;;;8.25;5.20;;;;;;;;;;5054232;28;20474;-66
2022/05/13 01:18:45;;;;;;;8.23;5.40;;;;;;;;;;5053687;28;20032;-65
2022/05/13 01:21:15;;;;;;;8.45;5.57;;;;;;;;;;5054788;28;20037;-65
2022/05/13 01:23:44;;;;;;;11.07;5.10;;;;;;;;;;5054766;28;20032;-66
2022/05/13 01:26:17;;;;;;;11.07;5.47;;;;;;;;;;5054480;28;20033;-65
2022/05/13 01:28:47;;;;;;;8.40;5.57;;;;;;;;;;5075623;28;20037;-65
2022/05/13 01:31:25;;;;;;;8.43;5.47;;;;;;;;;;5074430;28;20111;-65
2022/05/13 01:33:51;;;;;;;9.02;5.53;;;;;;;;;;5073726;28;20037;-65
2022/05/13 01:36:17;;;;;;;11.27;5.80;;;;;;;;;;5074311;28;20029;-65
2022/05/13 01:38:43;;;;;;;12.75;5.90;;;;;;;;;;5074440;28;20035;-67
2022/05/13 01:41:11;;;;;;;10.25;6.55;;;;;;;;;;5074364;28;20387;-64
2022/05/13 01:43:39;;;;;;;12.52;6.40;;;;;;;;;;5074162;28;20399;-66
2022/05/13 01:46:05;;;;;;;20.13;7.47;;;;;;;;;;5073985;28;20098;-64
2022/05/13 01:48:31;;;;;;;15.52;7.32;;;;;;;;;;5074155;28;20035;-66
2022/05/13 01:50:57;;;;;;;12.15;6.70;;;;;;;;;;5074265;28;20029;-64
2022/05/13 01:53:23;;;;;;;11.15;6.72;;;;;;;;;;5073966;28;20039;-64
2022/05/13 01:55:49;;;;;;;14.65;8.43;;;;;;;;;;5074022;28;20037;-64
2022/05/13 01:58:18;;;;;;;16.23;9.38;;;;;;;;;;5073854;28;20033;-66
2022/05/13 02:00:46;;;;;;;14.63;7.75;;;;;;;;;;5073972;28;20063;-64
2022/05/13 02:05:57;;;;;;;14.27;7.88;;;;;;;;;;5073331;28;20505;-64
2022/05/13 02:08:23;;;;;;;12.25;7.75;;;;;;;;;;5064779;28;20065;-65
2022/05/13 02:10:49;;;;;;;12.52;7.53;;;;;;;;;;5053715;28;20036;-64
2022/05/13 02:13:16;;;;;;;17.42;8.63;;;;;;;;;;5053501;28;20120;-65
2022/05/13 02:15:42;;;;;;;13.77;8.27;;;;;;;;;;5053247;28;20112;-65
2022/05/13 02:18:09;;;;;;;24.45;8.57;;;;;;;;;;5053357;28;20104;-64
2022/05/13 02:20:37;;;;;;;9.55;6.80;;;;;;;;;;5061447;28;20063;-65
2022/05/13 02:23:03;;;;;;;10.73;6.53;;;;;;;;;;5073630;28;20089;-65
2022/05/13 02:25:33;;;;;;;9.38;6.30;;;;;;;;;;5072789;28;20040;-66
2022/05/13 02:28:00;;;;;;;11.40;6.78;;;;;;;;;;5073501;28;20028;-65
2022/05/13 02:30:28;;;;;;;13.05;7.90;;;;;;;;;;5073421;28;20104;-65
2022/05/13 02:32:55;;;;;;;12.02;7.30;;;;;;;;;;5073318;28;20111;-68
2022/05/13 02:35:20;;;;;;;12.07;7.38;;;;;;;;;;5072794;28;20024;-64
2022/05/13 02:37:47;;;;;;;14.07;7.55;;;;;;;;;;5072316;28;20043;-65
2022/05/13 02:40:14;;;;;;;17.90;7.68;;;;;;;;;;5073023;28;20017;-64
2022/05/13 02:42:40;;;;;;;12.32;6.97;;;;;;;;;;5071526;28;20501;-64
2022/05/13 02:45:09;;;;;;;11.90;7.35;;;;;;;;;;5072606;28;20115;-66
2022/05/13 02:47:39;;;;;;;13.82;7.43;;;;;;;;;;5072665;28;20032;-66
2022/05/13 02:50:18;;;;;;;16.02;9.65;;;;;;;;;;5072222;28;20086;-65
2022/05/13 02:52:50;;;;;;;15.52;9.70;;;;;;;;;;5073043;28;20044;-64
2022/05/13 02:55:16;;;;;;;18.15;10.88;;;;;;;;;;5072713;28;20040;-65
2022/05/13 02:57:42;;;;;;;24.05;11.43;;;;;;;;;;5072520;28;20044;-64
2022/05/13 03:00:09;;;;;;;26.23;13.00;;;;;;;;;;5072491;28;20044;-66
2022/05/13 03:02:36;;;;;;;22.77;12.75;;;;;;;;;;5072119;28;20081;-65
2022/05/13 03:05:02;;;;;;;19.08;12.35;;;;;;;;;;5072639;28;20462;-65
2022/05/13 03:07:28;;;;;;;23.00;12.32;;;;;;;;;;5072164;28;20104;-66
2022/05/13 03:09:54;;;;;;;23.75;13.95;;;;;;;;;;5072699;28;20033;-67
2022/05/13 03:12:20;;;;;;;26.40;13.60;;;;;;;;;;5072430;28;20042;-66
2022/05/13 03:14:46;;;;;;;25.13;13.00;;;;;;;;;;5072689;28;20031;-70
2022/05/13 03:17:12;;;;;;;37.55;14.60;;;;;;;;;;5071028;28;20024;-64
2022/05/13 03:19:39;;;;;;;29.05;13.90;;;;;;;;;;5072100;28;20140;-66
2022/05/13 03:22:05;;;;;;;23.80;14.77;;;;;;;;;;5071575;28;20020;-65
2022/05/13 03:24:32;;;;;;;23.83;15.05;;;;;;;;;;5071745;28;20044;-70
2022/05/13 03:26:58;;;;;;;23.35;13.38;;;;;;;;;;5071802;28;20024;-66
2022/05/13 03:29:24;;;;;;;33.92;15.32;;;;;;;;;;5071698;28;20094;-67
2022/05/13 03:31:50;;;;;;;34.88;16.90;;;;;;;;;;5071816;28;20024;-65
2022/05/13 03:34:16;;;;;;;21.40;13.48;;;;;;;;;;5071691;28;20072;-64
2022/05/13 03:36:42;;;;;;;27.73;13.00;;;;;;;;;;5073176;28;20091;-64
2022/05/13 03:39:08;;;;;;;21.15;12.73;;;;;;;;;;5070616;28;20426;-68
2022/05/13 03:41:34;;;;;;;22.58;13.75;;;;;;;;;;5071778;28;20028;-66
2022/05/13 03:44:00;;;;;;;31.58;14.40;;;;;;;;;;5068334;28;20037;-69
2022/05/13 03:46:26;;;;;;;20.55;12.55;;;;;;;;;;5071226;28;20028;-68
2022/05/13 03:48:52;;;;;;;29.50;13.20;;;;;;;;;;5071435;28;20037;-66
2022/05/13 03:51:17;;;;;;;31.73;13.43;;;;;;;;;;5071371;28;20183;-69
2022/05/13 03:53:43;;;;;;;33.33;13.40;;;;;;;;;;5071696;28;20131;-68
2022/05/13 03:56:09;;;;;;;35.50;13.68;;;;;;;;;;5070728;28;20053;-67
2022/05/13 03:58:36;;;;;;;34.25;14.35;;;;;;;;;;5072433;28;20029;-68
2022/05/13 04:01:03;;;;;;;27.20;14.02;;;;;;;;;;5070255;28;20379;-67
2022/05/13 04:03:29;;;;;;;31.75;16.98;;;;;;;;;;5071351;28;20097;-68
2022/05/13 04:08:58;;;;;;;26.20;16.08;;;;;;;;;;5071112;28;20032;-68
2022/05/13 04:11:33;;;;;;;36.10;18.85;;;;;;;;;;5070454;28;20033;-66
2022/05/13 04:16:44;;;;;;;28.58;17.75;;;;;;;;;;5066879;28;20040;-67
2022/05/13 04:19:11;;;;;;;32.35;18.13;;;;;;;;;;5069302;28;20112;-65
2022/05/13 04:21:40;;;;;;;31.75;17.08;;;;;;;;;;5060208;28;20036;-66
2022/05/13 04:24:10;;;;;;;44.25;20.73;;;;;;;;;;5050419;28;20029;-69
2022/05/13 04:26:36;;;;;;;32.33;17.65;;;;;;;;;;5050949;28;20663;-69
2022/05/13 04:29:03;;;;;;;20.27;16.15;;;;;;;;;;5056547;28;20036;-67
2022/05/13 04:31:35;;;;;;;26.55;16.05;;;;;;;;;;5069976;28;20036;-74
2022/05/13 04:34:01;;;;;;;19.73;13.77;;;;;;;;;;5069874;28;20048;-72
2022/05/13 04:36:27;;;;;;;26.95;12.70;;;;;;;;;;5069526;28;20025;-72
2022/05/13 04:38:54;;;;;;;24.13;12.10;;;;;;;;;;5070129;28;20103;-73
2022/05/13 04:44:07;;;;;;;16.00;9.55;;;;;;;;;;5061934;28;20368;-71
2022/05/13 04:46:33;;;;;;;18.17;10.50;;;;;;;;;;5065576;28;20533;-71
2022/05/13 04:48:59;;;;;;;22.38;8.65;;;;;;;;;;5050098;28;20059;-73
2022/05/13 04:51:26;;;;;;;14.57;7.75;;;;;;;;;;5049940;28;20471;-71
2022/05/13 04:53:54;;;;;;;15.07;7.22;;;;;;;;;;5060207;28;20498;-72
2022/05/13 04:56:22;;;;;;;19.33;7.07;;;;;;;;;;5069986;28;20075;-73
2022/05/13 04:58:48;;;;;;;11.50;6.88;;;;;;;;;;5067166;28;20035;-73
2022/05/13 05:01:15;;;;;;;17.13;7.53;;;;;;;;;;5069417;28;20036;-70
2022/05/13 05:03:43;;;;;;;10.88;5.95;;;;;;;;;;5066266;28;20495;-71
2022/05/13 05:06:10;;;;;;;14.10;6.57;;;;;;;;;;5067326;28;20466;-71
2022/05/13 05:08:37;;;;;;;17.50;6.57;;;;;;;;;;5069692;28;20056;-73
2022/05/13 05:11:05;;;;;;;18.10;6.43;;;;;;;;;;5071062;28;20511;-70
2022/05/13 05:13:33;;;;;;;13.07;6.05;;;;;;;;;;5070711;28;20028;-72
2022/05/13 05:15:59;;;;;;;20.42;6.25;;;;;;;;;;5071852;28;20032;-77
2022/05/13 05:18:26;;;;;;;15.55;6.22;;;;;;;;;;5071934;28;20032;-72
2022/05/13 05:20:52;;;;;;;12.30;5.75;;;;;;;;;;5072016;28;20028;-71
2022/05/13 05:23:24;;;;;;;16.42;6.55;;;;;;;;;;5073604;28;20075;-72
2022/05/13 05:25:50;;;;;;;21.95;7.35;;;;;;;;;;5054401;28;20388;-72
2022/05/13 05:28:15;;;;;;;17.38;6.47;;;;;;;;;;5052909;28;20028;-73
2022/05/13 05:30:42;;;;;;;25.95;7.72;;;;;;;;;;5053983;28;20483;-71
2022/05/13 05:33:08;;;;;;;21.92;7.70;;;;;;;;;;5053999;28;20040;-73
2022/05/13 05:35:35;;;;;;;20.27;7.13;;;;;;;;;;5052979;28;20033;-70
2022/05/13 05:38:01;;;;;;;18.15;7.43;;;;;;;;;;5055350;28;20021;-77
2022/05/13 05:40:27;;;;;;;14.10;7.10;;;;;;;;;;5054967;28;20033;-77
2022/05/13 05:42:53;;;;;;;16.98;7.72;;;;;;;;;;5053350;28;20052;-72
2022/05/13 05:45:21;;;;;;;15.13;7.60;;;;;;;;;;5055667;28;20131;-75
2022/05/13 05:47:47;;;;;;;18.60;8.20;;;;;;;;;;5062167;28;20028;-72
2022/05/13 05:50:16;;;;;;;16.05;8.10;;;;;;;;;;5053860;28;20047;-72
2022/05/13 05:52:42;;;;;;;18.83;8.55;;;;;;;;;;5054659;28;20590;-71
2022/05/13 05:58:07;;;;;;;22.00;8.40;;;;;;;;;;5053284;28;20041;-71
2022/05/13 06:00:38;;;;;;;20.17;8.23;;;;;;;;;;5053835;28;20045;-70
2022/05/13 06:03:05;;;;;;;15.05;7.55;;;;;;;;;;5053739;28;20033;-71
2022/05/13 06:05:31;;;;;;;13.07;6.88;;;;;;;;;;5053261;28;20021;-71
2022/05/13 06:07:58;;;;;;;16.30;7.63;;;;;;;;;;5053466;28;20032;-70
2022/05/13 06:10:26;;;;;;;17.85;7.85;;;;;;;;;;5052752;28;20041;-71
2022/05/13 06:12:52;;;;;;;18.00;6.88;;;;;;;;;;5052487;28;20037;-71
2022/05/13 06:15:19;;;;;;;14.52;7.15;;;;;;;;;;5053068;28;20494;-70
2022/05/13 06:17:50;;;;;;;12.02;6.80;;;;;;;;;;5053067;28;20387;-71
2022/05/13 06:20:19;;;;;;;11.35;6.22;;;;;;;;;;5052535;28;20484;-71
2022/05/13 06:22:45;;;;;;;13.18;6.45;;;;;;;;;;5053085;28;20029;-71
2022/05/13 06:25:13;;;;;;;8.75;5.57;;;;;;;;;;5053252;28;20559;-71
2022/05/13 06:27:40;;;;;;;11.60;6.30;;;;;;;;;;5052370;28;20048;-69
2022/05/13 06:30:13;;;;;;;10.18;5.55;;;;;;;;;;5056520;28;20262;-71
2022/05/13 06:32:39;;;;;;;11.15;6.07;;;;;;;;;;5065411;28;20086;-73
2022/05/13 06:35:05;;;;;;;15.60;5.97;;;;;;;;;;5071829;28;20496;-71
2022/05/13 06:37:31;;;;;;;11.65;5.15;;;;;;;;;;5072128;28;20403;-71
2022/05/13 06:39:57;;;;;;;9.93;5.10;;;;;;;;;;5057451;28;20024;-73
2022/05/13 06:42:23;;;;;;;9.55;5.30;;;;;;;;;;5050649;28;20055;-72
2022/05/13 06:44:49;;;;;;;9.45;5.45;;;;;;;;;;5061911;28;20065;-75
2022/05/13 06:47:15;;;;;;;9.10;4.60;;;;;;;;;;5061543;28;20025;-71
2022/05/13 06:49:41;;;;;;;11.65;4.80;;;;;;;;;;5051630;28;20023;-71
2022/05/13 06:52:13;;;;;;;10.05;4.93;;;;;;;;;;5057346;28;20495;-71
2022/05/13 06:54:43;;;;;;;8.25;4.38;;;;;;;;;;5062364;28;20028;-72
2022/05/13 06:57:10;;;;;;;14.75;4.65;;;;;;;;;;5067063;28;20136;-74
2022/05/13 06:59:37;;;;;;;10.95;4.75;;;;;;;;;;5071280;28;20111;-72
2022/05/13 07:02:04;;;;;;;10.13;4.68;;;;;;;;;;5072025;28;20535;-72
2022/05/13 07:04:29;;;;;;;9.35;4.53;;;;;;;;;;5071314;28;20095;-78
2022/05/13 07:06:55;;;;;;;6.90;4.40;;;;;;;;;;5071718;28;20063;-72
2022/05/13 07:09:21;;;;;;;8.15;4.45;;;;;;;;;;5071891;28;20463;-74
2022/05/13 07:11:47;;;;;;;8.18;4.88;;;;;;;;;;5071407;28;20257;-73
2022/05/13 07:14:13;;;;;;;12.88;4.55;;;;;;;;;;5065446;28;20040;-73
2022/05/13 07:16:39;;;;;;;7.65;4.45;;;;;;;;;;5055491;28;20430;-73
2022/05/13 07:19:06;;;;;;;7.75;4.45;;;;;;;;;;5050978;28;20074;-71
2022/05/13 07:21:32;;;;;;;8.32;4.38;;;;;;;;;;5051959;28;20041;-72
2022/05/13 07:23:58;;;;;;;6.70;4.20;;;;;;;;;;5051889;28;20025;-73
2022/05/13 07:26:24;;;;;;;8.82;4.47;;;;;;;;;;5050950;28;20511;-71
2022/05/13 07:28:49;;;;;;;4.60;3.88;;;;;;;;;;5051425;28;20029;-71
2022/05/13 07:31:15;;;;;;;6.07;4.15;;;;;;;;;;5050562;28;20098;-72
2022/05/13 07:33:41;;;;;;;8.73;4.63;;;;;;;;;;5050794;28;20129;-73
2022/05/13 07:36:07;;;;;;;7.07;3.88;;;;;;;;;;5051654;28;20051;-74
2022/05/13 07:38:34;;;;;;;8.73;3.75;;;;;;;;;;5051970;28;20029;-76
2022/05/13 07:41:17;;;;;;;5.78;3.45;;;;;;;;;;5051303;28;20458;-75
2022/05/13 07:43:47;;;;;;;9.05;4.13;;;;;;;;;;5051870;28;20115;-73
2022/05/13 07:46:13;;;;;;;6.60;4.20;;;;;;;;;;5055087;28;20087;-73
2022/05/13 07:48:40;;;;;;;5.95;3.50;;;;;;;;;;5051294;28;20108;-74
2022/05/13 07:51:08;;;;;;;6.85;3.95;;;;;;;;;;5061350;28;20466;-74
2022/05/13 07:53:34;;;;;;;7.60;3.70;;;;;;;;;;5070699;28;20458;-72
2022/05/13 07:56:01;;;;;;;8.63;4.30;;;;;;;;;;5070057;28;20090;-72
2022/05/13 07:58:28;;;;;;;11.05;5.18;;;;;;;;;;5070510;28;20416;-73
2022/05/13 08:00:54;;;;;;;9.68;4.05;;;;;;;;;;5070607;28;20034;-74
2022/05/13 08:03:21;;;;;;;8.65;4.20;;;;;;;;;;5070455;28;20799;-76
2022/05/13 08:05:50;;;;;;;11.55;4.30;;;;;;;;;;5070347;28;20060;-75
2022/05/13 08:08:23;;;;;;;7.40;3.80;;;;;;;;;;5070563;28;20024;-74
2022/05/13 08:10:53;;;;;;;10.00;3.92;;;;;;;;;;5070755;28;20033;-75
2022/05/13 08:13:19;;;;;;;11.30;4.40;;;;;;;;;;5070342;28;20036;-74
2022/05/13 08:15:46;;;;;;;8.20;3.80;;;;;;;;;;5070493;28;20044;-74
2022/05/13 08:18:13;;;;;;;10.45;4.13;;;;;;;;;;5069947;28;20029;-75
2022/05/13 08:20:40;;;;;;;13.35;3.97;;;;;;;;;;5070914;28;20479;-74
2022/05/13 08:23:07;;;;;;;5.85;3.85;;;;;;;;;;5070563;28;20037;-74
2022/05/13 08:25:33;;;;;;;5.93;4.07;;;;;;;;;;5070444;28;20070;-75
2022/05/13 08:28:00;;;;;;;9.75;3.67;;;;;;;;;;5070683;28;20040;-74
2022/05/13 08:30:26;;;;;;;8.90;3.78;;;;;;;;;;5070714;28;20032;-76
2022/05/13 08:32:52;;;;;;;10.02;4.32;;;;;;;;;;5070360;28;20412;-75
2022/05/13 08:35:18;;;;;;;7.88;3.60;;;;;;;;;;5070610;28;20116;-72
2022/05/13 08:37:52;;;;;;;9.02;3.58;;;;;;;;;;5070381;28;20096;-73
2022/05/13 08:40:49;;;;;;;7.38;3.95;;;;;;;;;;5069445;28;20036;-71
2022/05/13 08:43:30;;;;;;;6.55;3.40;;;;;;;;;;5056522;28;20083;-74
2022/05/13 08:46:01;;;;;;;5.32;3.20;;;;;;;;;;5063486;28;20047;-71
2022/05/13 08:48:55;;;;;;;10.02;3.67;;;;;;;;;;5055546;28;20041;-71
2022/05/13 08:51:30;;;;;;;10.25;3.70;;;;;;;;;;5068792;28;20032;-74
2022/05/13 08:54:03;;;;;;;4.70;3.42;;;;;;;;;;5073513;28;20048;-75
2022/05/13 08:56:30;;;;;;;7.65;3.20;;;;;;;;;;5055266;28;20040;-75
2022/05/13 08:59:08;;;;;;;6.05;3.67;;;;;;;;;;5055161;28;20430;-76
2022/05/13 09:01:45;;;;;;;6.25;3.55;;;;;;;;;;5058684;28;20033;-72
2022/05/13 09:04:20;;;;;;;5.13;3.60;;;;;;;;;;5069189;28;20084;-76
2022/05/13 09:06:51;;;;;;;5.82;3.25;;;;;;;;;;5073627;28;20043;-72
2022/05/13 09:09:17;;;;;;;6.43;3.10;;;;;;;;;;5066012;28;20058;-72
2022/05/13 09:12:21;;;;;;;5.82;3.20;;;;;;;;;;5053744;28;20024;-73
2022/05/13 09:15:08;;;;;;;6.47;3.42;;;;;;;;;;5064866;28;20060;-72
2022/05/13 09:17:46;;;;;;;5.68;3.60;;;;;;;;;;5073393;28;20063;-70
2022/05/13 09:20:16;;;;;;;6.97;3.50;;;;;;;;;;5073716;28;20112;-71
2022/05/13 09:22:52;;;;;;;6.60;3.58;;;;;;;;;;5073728;28;20021;-74
2022/05/13 09:25:41;;;;;;;7.65;4.18;;;;;;;;;;5073255;28;20039;-72
2022/05/13 09:28:13;;;;;;;7.63;3.42;;;;;;;;;;5072216;28;20103;-73
2022/05/13 09:30:41;;;;;;;6.10;3.42;;;;;;;;;;5073008;28;20036;-75
2022/05/13 09:33:30;;;;;;;7.35;3.25;;;;;;;;;;5073276;28;20016;-73
2022/05/13 09:35:59;;;;;;;10.45;3.70;;;;;;;;;;5072998;28;20163;-73
2022/05/13 09:38:28;;;;;;;5.90;3.40;;;;;;;;;;5073251;28;20021;-71
2022/05/13 09:41:05;;;;;;;7.15;3.33;;;;;;;;;;5071520;28;20035;-74
2022/05/13 09:43:43;;;;;;;6.45;3.42;;;;;;;;;;5077020;28;20052;-76
2022/05/13 09:46:09;;;;;;;5.75;3.10;;;;;;;;;;5072780;28;20041;-75
2022/05/13 09:48:37;;;;;;;5.88;2.88;;;;;;;;;;5072311;28;20031;-73
2022/05/13 09:51:32;;;;;;;8.02;3.20;;;;;;;;;;5072714;28;20067;-71
2022/05/13 09:54:12;;;;;;;6.45;4.32;;;;;;;;;;5071959;28;20074;-73
2022/05/13 09:56:48;;;;;;;7.38;3.17;;;;;;;;;;5071162;28;20116;-75
2022/05/13 09:59:20;;;;;;;7.43;3.47;;;;;;;;;;5072095;28;20483;-76
2022/05/13 10:01:46;;;;;;;7.90;4.00;;;;;;;;;;5072451;28;20037;-76
2022/05/13 10:04:22;;;;;;;5.88;3.50;;;;;;;;;;5071496;28;20029;-75
2022/05/13 10:07:01;;;;;;;9.38;4.80;;;;;;;;;;5072328;28;20078;-75
2022/05/13 10:15:40;;;;;;;6.90;3.58;;;;;;;;;;5072017;28;20036;-74
2022/05/13 10:18:17;;;;;;;5.35;3.42;;;;;;;;;;5071576;28;20029;-74
2022/05/13 10:20:45;;;;;;;5.70;3.28;;;;;;;;;;5072173;28;20040;-71
2022/05/13 10:23:18;;;;;;;5.72;3.30;;;;;;;;;;5071859;28;20064;-77
2022/05/13 10:25:53;;;;;;;4.50;2.65;;;;;;;;;;5071993;28;20039;-71
2022/05/13 10:28:21;;;;;;;5.93;3.50;;;;;;;;;;5072198;28;20103;-72
2022/05/13 10:30:54;;;;;;;5.55;3.22;;;;;;;;;;5072106;28;20048;-73
2022/05/13 10:33:30;;;;;;;7.57;3.35;;;;;;;;;;5072269;28;20102;-74
2022/05/13 10:36:04;;;;;;;7.82;2.80;;;;;;;;;;5060283;28;20087;-74
2022/05/13 10:38:38;;;;;;;6.28;3.10;;;;;;;;;;5070708;28;20036;-73
2022/05/13 10:41:25;;;;;;;5.38;3.15;;;;;;;;;;5070744;28;20093;-72
2022/05/13 10:43:59;;;;;;;6.68;3.08;;;;;;;;;;5070131;28;20529;-71
2022/05/13 10:46:50;;;;;;;6.72;3.10;;;;;;;;;;5070905;28;20240;-72
2022/05/13 10:49:16;;;;;;;6.88;3.33;;;;;;;;;;5072714;28;20458;-72
2022/05/13 10:51:53;;;;;;;6.70;3.22;;;;;;;;;;5072863;28;20085;-75
2022/05/13 10:54:34;;;;;;;6.25;3.00;;;;;;;;;;5072927;28;20032;-71
2022/05/13 10:57:10;;;;;;;7.07;4.00;;;;;;;;;;5070558;28;20055;-71
2022/05/13 10:59:52;;;;;;;8.43;3.45;;;;;;;;;;5071760;28;20069;-73
2022/05/13 11:02:40;;;;;;;6.23;3.43;;;;;;;;;;5072073;28;20083;-71
2022/05/13 11:05:27;;;;;;;7.75;3.33;;;;;;;;;;5071656;28;20380;-72
2022/05/13 11:08:19;;;;;;;8.30;3.15;;;;;;;;;;5072597;28;20045;-72
2022/05/13 11:10:51;;;;;;;8.93;3.75;;;;;;;;;;5068430;28;20052;-71
2022/05/13 11:13:32;;;;;;;6.32;3.72;;;;;;;;;;5072155;28;20044;-72
2022/05/13 11:16:08;;;;;;;7.32;3.47;;;;;;;;;;5071679;28;20067;-72
2022/05/13 11:18:52;;;;;;;7.38;3.70;;;;;;;;;;5071210;28;20056;-71
2022/05/13 11:21:31;;;;;;;6.97;3.83;;;;;;;;;;5072134;28;20102;-71
2022/05/13 11:27:32;;;;;;;8.38;3.88;;;;;;;;;;5071929;28;20086;-72
2022/05/13 11:30:08;;;;;;;5.03;3.40;;;;;;;;;;5072653;28;20479;-75
2022/05/13 11:32:58;;;;;;;7.65;3.90;;;;;;;;;;5072522;28;20032;-77
2022/05/13 11:35:41;;;;;;;7.22;5.05;;;;;;;;;;5072651;28;20494;-76
2022/05/13 11:38:16;;;;;;;11.02;4.75;;;;;;;;;;5071434;28;20498;-76
2022/05/13 11:40:59;;;;;;;7.97;3.88;;;;;;;;;;5061688;28;20032;-76
2022/05/13 11:43:25;;;;;;;;;;;;;;;;;;5052823;28;20052;-72
2022/05/13 11:46:26;;;;;;;4.97;3.58;;;;;;;;;;5052343;28;19919;-74
2022/05/13 11:48:58;;;;;;;8.95;4.10;;;;;;;;;;5052625;28;20029;-76
2022/05/13 11:51:28;;;;;;;10.52;4.70;;;;;;;;;;5060866;28;20034;-75
2022/05/13 11:54:00;;;;;;;10.73;5.05;;;;;;;;;;5052321;28;20038;-74
2022/05/13 11:56:26;;;;;;;6.07;4.15;;;;;;;;;;5051847;28;20633;-74
2022/05/13 11:58:56;;;;;;;7.35;3.95;;;;;;;;;;5052563;28;20112;-74
2022/05/13 12:01:37;;;;;;;7.35;3.63;;;;;;;;;;5052652;28;20126;-76
2022/05/13 12:04:12;;;;;;;6.68;3.50;;;;;;;;;;5052293;28;20158;-77
2022/05/13 12:06:50;;;;;;;7.43;3.15;;;;;;;;;;5052379;28;20452;-77
2022/05/13 12:09:26;;;;;;;8.32;3.30;;;;;;;;;;5052553;28;20035;-75
2022/05/13 12:11:52;;;;;;;5.25;3.42;;;;;;;;;;5052557;28;20107;-76
2022/05/13 12:14:33;;;;;;;8.15;3.38;;;;;;;;;;5052976;28;20507;-76
2022/05/13 12:17:37;;;;;;;9.75;3.92;;;;;;;;;;5052305;28;20534;-73
2022/05/13 12:20:25;;;;;;;4.68;3.35;;;;;;;;;;5052920;28;20036;-74
2022/05/13 12:23:28;;;;;;;6.57;3.72;;;;;;;;;;5059276;28;20109;-77
2022/05/13 12:26:01;;;;;;;4.40;2.95;;;;;;;;;;5060626;28;20112;-71
2022/05/13 12:28:55;;;;;;;7.88;3.70;;;;;;;;;;5058941;28;20037;-71
2022/05/13 12:31:45;;;;;;;10.30;3.42;;;;;;;;;;5052229;28;20029;-72
2022/05/13 12:37:57;;;;;;;9.05;6.47;;;;;;;;;;5051786;28;20037;-70
2022/05/13 12:40:23;;;;;;;14.93;4.40;;;;;;;;;;5051873;28;20048;-71
2022/05/13 12:42:52;;;;;;;4.32;3.28;;;;;;;;;;5051869;28;20083;-73
2022/05/13 12:45:21;;;;;;;5.70;3.97;;;;;;;;;;5062572;28;20039;-72
2022/05/13 12:48:08;;;;;;;5.30;3.28;;;;;;;;;;5071924;28;20116;-71
2022/05/13 12:50:54;;;;;;;5.70;2.97;;;;;;;;;;5070727;28;20033;-70
2022/05/13 12:53:29;;;;;;;3.28;2.63;;;;;;;;;;5074161;28;20036;-70
2022/05/13 12:55:57;;;;;;;7.07;3.00;;;;;;;;;;5071342;28;20045;-74
2022/05/13 12:58:24;;;;;;;5.97;2.90;;;;;;;;;;5071474;28;20039;-72
2022/05/13 13:00:52;;;;;;;5.13;2.78;;;;;;;;;;5071235;28;20021;-72
2022/05/13 13:03:20;;;;;;;5.03;2.75;;;;;;;;;;5071190;28;20417;-71
2022/05/13 13:05:57;;;;;;;5.72;2.83;;;;;;;;;;5071255;28;20455;-72
2022/05/13 13:08:26;;;;;;;6.38;3.60;;;;;;;;;;5070977;28;20100;-68
2022/05/13 13:10:57;;;;;;;3.30;2.58;;;;;;;;;;5070701;28;20141;-72
2022/05/13 13:13:41;;;;;;;5.50;2.95;;;;;;;;;;5071093;28;20108;-68
2022/05/13 13:16:22;;;;;;;6.65;2.95;;;;;;;;;;5071053;28;20024;-69
2022/05/13 13:19:04;;;;;;;7.55;2.60;;;;;;;;;;5071370;28;20148;-69
2022/05/13 13:21:30;;;;;;;4.50;2.97;;;;;;;;;;5071014;28;20120;-69
2022/05/13 13:23:57;;;;;;;6.10;2.60;;;;;;;;;;5070740;28;20099;-70
2022/05/13 13:26:23;;;;;;;7.80;3.05;;;;;;;;;;5071116;28;20029;-71
2022/05/13 13:28:53;;;;;;;3.85;2.67;;;;;;;;;;5072603;28;20028;-75
2022/05/13 13:31:25;;;;;;;9.50;2.55;;;;;;;;;;5075139;28;20470;-71
2022/05/13 13:33:55;;;;;;;4.03;2.60;;;;;;;;;;5074925;28;20491;-72
2022/05/13 13:36:29;;;;;;;5.47;3.00;;;;;;;;;;5074755;28;20028;-76
2022/05/13 13:38:59;;;;;;;6.93;3.03;;;;;;;;;;5074689;28;20467;-77
2022/05/13 13:41:37;;;;;;;4.60;2.83;;;;;;;;;;5074852;28;20044;-74
2022/05/13 13:44:08;;;;;;;4.38;2.95;;;;;;;;;;5074763;28;20430;-73
2022/05/13 13:46:41;;;;;;;5.18;2.67;;;;;;;;;;5074599;28;20086;-75
2022/05/13 13:49:08;;;;;;;;;;;;;;;;;;5074914;28;20078;-71
2022/05/13 13:51:43;;;;;;;3.60;2.58;;;;;;;;;;5074697;28;20062;-77
2022/05/13 13:54:17;;;;;;;3.40;2.72;;;;;;;;;;5074639;28;20029;-73
2022/05/13 13:57:11;;;;;;;4.03;2.67;;;;;;;;;;5073802;28;20132;-75
2022/05/13 14:00:14;;;;;;;5.18;2.97;;;;;;;;;;5074437;28;20395;-72
2022/05/13 14:02:46;;;;;;;5.25;2.78;;;;;;;;;;5073943;28;20037;-73
2022/05/13 14:05:37;;;;;;;5.38;2.90;;;;;;;;;;5074027;28;20033;-75
2022/05/13 14:08:03;;;;;;;5.60;2.95;;;;;;;;;;5073617;28;20044;-76
2022/05/13 14:10:35;;;;;;;9.27;2.72;;;;;;;;;;5073752;28;20028;-75
2022/05/13 14:13:07;;;;;;;3.97;2.78;;;;;;;;;;5073776;28;20024;-76
2022/05/13 14:15:38;;;;;;;4.28;2.83;;;;;;;;;;5073906;28;20039;-79
2022/05/13 14:18:07;;;;;;;8.55;2.90;;;;;;;;;;5074190;28;20459;-75
2022/05/13 14:20:39;;;;;;;6.85;3.22;;;;;;;;;;5073900;28;20025;-78
2022/05/13 14:23:08;;;;;;;7.30;3.72;;;;;;;;;;5089256;28;20098;-74
2022/05/13 14:25:57;;;;;;;6.07;2.75;;;;;;;;;;5070492;28;20099;-78
2022/05/13 14:28:33;;;;;;;5.03;3.20;;;;;;;;;;5072680;28;20029;-75
2022/05/13 14:31:07;;;;;;;6.15;3.53;;;;;;;;;;5072707;28;20031;-75
2022/05/13 14:33:39;;;;;;;4.95;3.10;;;;;;;;;;5071873;28;20028;-71
2022/05/13 14:36:06;;;;;;;3.55;2.45;;;;;;;;;;5070459;28;20032;-73
2022/05/13 14:41:54;;;;;;;5.32;3.03;;;;;;;;;;5071536;28;20107;-73
2022/05/13 14:44:36;;;;;;;6.13;2.95;;;;;;;;;;5072424;28;20032;-72
2022/05/13 14:47:06;;;;;;;5.25;2.80;;;;;;;;;;5072406;28;20040;-77
2022/05/13 14:49:53;;;;;;;5.00;2.80;;;;;;;;;;5072659;28;20383;-73
2022/05/13 14:52:27;;;;;;;5.72;3.05;;;;;;;;;;5072648;28;20103;-75
2022/05/13 14:54:55;;;;;;;5.25;3.28;;;;;;;;;;5072477;28;20391;-72
2022/05/13 14:57:22;;;;;;;6.57;2.90;;;;;;;;;;5070625;28;20387;-72
2022/05/13 14:59:57;;;;;;;5.88;2.88;;;;;;;;;;5072221;28;20033;-73
2022/05/13 15:02:44;;;;;;;7.43;3.10;;;;;;;;;;5072092;28;20028;-75
2022/05/13 15:05:37;;;;;;;5.20;2.92;;;;;;;;;;5072332;28;20483;-74
2022/05/13 15:08:40;;;;;;;6.28;2.78;;;;;;;;;;5072117;28;20040;-77
2022/05/13 15:11:11;;;;;;;6.55;3.47;;;;;;;;;;5072081;28;20032;-76
2022/05/13 15:13:37;;;;;;;4.95;3.40;;;;;;;;;;5072412;28;20445;-75
2022/05/13 15:16:04;;;;;;;5.07;3.10;;;;;;;;;;5071610;28;20024;-70
2022/05/13 15:18:32;;;;;;;4.53;3.10;;;;;;;;;;5071693;28;20033;-76
2022/05/13 15:21:01;;;;;;;3.85;2.50;;;;;;;;;;5071977;28;20541;-76
2022/05/13 15:23:27;;;;;;;8.13;3.10;;;;;;;;;;5071867;28;20037;-75
2022/05/13 15:25:53;;;;;;;8.25;3.13;;;;;;;;;;5071742;28;20070;-78
2022/05/13 15:28:21;;;;;;;4.65;2.90;;;;;;;;;;5071469;28;20479;-70
2022/05/13 15:30:52;;;;;;;6.70;3.63;;;;;;;;;;5072334;28;20043;-77
2022/05/13 15:33:18;;;;;;;6.32;2.65;;;;;;;;;;5071766;28;20041;-77